Weather History for Walhalla, ND

Change the Weather History Date:

Tuesday, September 17, 2013

  Actual Average (KGAF) Record (KGAF)
Temperature  
Mean Temperature 56 °F -  
Max Temperature 64 °F 71 °F 94 °F (1979)
Min Temperature 48 °F 45 °F 21 °F (1959)
Degree Days  
Heating Degree Days 9    
Growing Degree Days 6 (Base 50)    
Moisture  
Dew Point 55 °F    
Average Humidity 90    
Maximum Humidity 100    
Minimum Humidity 77    
Precipitation  
Precipitation 0.00 in - - ()
Sea Level Pressure  
Sea Level Pressure 29.84 in    
Wind  
Wind Speed 12 mph (SSE)    
Max Wind Speed 18 mph    
Max Gust Speed 28 mph    
Visibility 10 miles    
Events      
Averages and records for this station are not official NWS values.
T = Trace of Precipitation, MM = Missing Value Source: NWS Daily Summary

Daily Weather History Graph

Daily Weather History Graph

Search for Another Location

Airport:

Trip Planner

Search our weather history database for the weather conditions in past years. The results will help you decide how hot, cold, wet, or windy it might be!

Date:

Astronomy

Sep. 17, 2013 Rise Set
Actual Time 7:11 AM CDT 7:39 PM CDT
Civil Twilight 6:39 AM CDT 8:11 PM CDT
Nautical Twilight 6:01 AM CDT 8:48 PM CDT
Astronomical Twilight 5:22 AM CDT 9:27 PM CDT
Moon 6:31 PM CDT (9/17) 5:00 AM CDT (9/17)
Length of Visible Light 13h 31m
Length of Day
12h 28m
Waxing Gibbous, 96% of the Moon is Illuminated
Sep 17
Waxing Gibbous
Sep 19
Full
Sep 26
Last Quarter
Oct 4
New
Oct 11
First Quarter

Hourly Weather History & Observations

Time (CDT) Temp. Dew Point Humidity Pressure Visibility Wind Dir Wind Speed Gust Speed Precip Events Conditions
12:15 AM 53.6 °F 48.2 °F 82% 30.01 in 10.0 mi SSE 6.9 mph - N/A   Clear
12:35 AM 53.6 °F 46.4 °F 77% 30.00 in 10.0 mi SSE 10.4 mph - N/A   Clear
12:55 AM 53.6 °F 46.4 °F 77% 30.00 in 10.0 mi SSE 11.5 mph - N/A   Clear
1:15 AM 53.6 °F 46.4 °F 77% 30.00 in 10.0 mi SSE 11.5 mph - N/A   Partly Cloudy
1:35 AM 53.6 °F 46.4 °F 77% 29.99 in 10.0 mi SSE 12.7 mph - N/A   Partly Cloudy
1:55 AM 53.6 °F 46.4 °F 77% 29.99 in 10.0 mi SSE 11.5 mph - N/A   Clear
2:15 AM 51.8 °F 46.4 °F 82% 29.99 in 10.0 mi SE 11.5 mph - N/A   Partly Cloudy
2:35 AM 50.0 °F 48.2 °F 94% 29.98 in 10.0 mi SSE 11.5 mph 17.3 mph N/A   Partly Cloudy
2:55 AM 51.8 °F 48.2 °F 88% 29.97 in 10.0 mi SSE 12.7 mph - N/A   Clear
3:15 AM 50.0 °F 48.2 °F 94% 29.97 in 10.0 mi SSE 12.7 mph - N/A   Partly Cloudy
3:35 AM 50.0 °F 48.2 °F 94% 29.96 in 10.0 mi SSE 11.5 mph - N/A   Partly Cloudy
3:55 AM 50.0 °F 48.2 °F 94% 29.96 in 10.0 mi SSE 12.7 mph - N/A   Clear
4:15 AM 50.0 °F 48.2 °F 94% 29.95 in 10.0 mi SSE 12.7 mph - N/A   Clear
4:35 AM 50.0 °F 48.2 °F 94% 29.94 in 10.0 mi SSE 15.0 mph 18.4 mph N/A   Clear
4:55 AM 50.0 °F 50.0 °F 100% 29.93 in 10.0 mi SSE 15.0 mph - N/A   Clear
5:15 AM 48.2 °F 48.2 °F 100% 29.93 in 10.0 mi SSE 15.0 mph - N/A   Clear
5:35 AM 48.2 °F 48.2 °F 100% 29.92 in 10.0 mi SSE 13.8 mph - N/A   Clear
5:55 AM 48.2 °F 48.2 °F 100% 29.92 in 10.0 mi SSE 13.8 mph - N/A   Clear
6:15 AM 48.2 °F 48.2 °F 100% 29.91 in 10.0 mi SSE 13.8 mph 19.6 mph N/A   Clear
6:35 AM 48.2 °F 48.2 °F 100% 29.91 in 10.0 mi SSE 12.7 mph - N/A   Clear
6:55 AM 48.2 °F 48.2 °F 100% 29.90 in 10.0 mi SSE 12.7 mph - N/A   Clear
7:15 AM 48.2 °F 48.2 °F 100% 29.90 in 10.0 mi SSE 11.5 mph - N/A   Clear
7:35 AM 48.2 °F 48.2 °F 100% 29.89 in 10.0 mi SSE 10.4 mph - N/A   Clear
7:55 AM 50.0 °F 50.0 °F 100% 29.89 in 10.0 mi SSE 12.7 mph 16.1 mph N/A   Clear
8:15 AM 50.0 °F 50.0 °F 100% 29.89 in 10.0 mi SSE 11.5 mph - N/A   Clear
8:35 AM 51.8 °F 51.8 °F 100% 29.89 in 10.0 mi SSE 11.5 mph - N/A   Clear
8:55 AM 53.6 °F 53.6 °F 100% 29.88 in 10.0 mi SSE 13.8 mph 19.6 mph N/A   Clear
9:15 AM 55.4 °F 53.6 °F 94% 29.87 in 10.0 mi South 12.7 mph 21.9 mph N/A   Clear
9:35 AM 55.4 °F 53.6 °F 94% 29.87 in 10.0 mi SSE 15.0 mph 20.7 mph N/A   Clear
9:55 AM 57.2 °F 53.6 °F 88% 29.87 in 10.0 mi South 17.3 mph 20.7 mph N/A   Clear
10:15 AM 59.0 °F 55.4 °F 88% 29.86 in 10.0 mi South 13.8 mph 21.9 mph N/A   Clear
10:35 AM 59.0 °F 55.4 °F 88% 29.85 in 10.0 mi SSE 17.3 mph 24.2 mph N/A   Clear
10:55 AM 60.8 °F 55.4 °F 82% 29.85 in 10.0 mi South 13.8 mph 24.2 mph N/A   Clear
11:15 AM 62.6 °F 55.4 °F 77% 29.85 in 10.0 mi South 17.3 mph 23.0 mph N/A   Mostly Cloudy
11:35 AM 62.6 °F 55.4 °F 77% 29.85 in 10.0 mi SSE 18.4 mph 24.2 mph N/A   Overcast
11:55 AM 64.4 °F 57.2 °F 77% 29.84 in 10.0 mi South 16.1 mph 21.9 mph N/A   Overcast
12:15 PM 64.4 °F 57.2 °F 77% 29.83 in 10.0 mi South 12.7 mph 20.7 mph N/A   Overcast
12:35 PM 64.4 °F 57.2 °F 77% 29.82 in 10.0 mi South 15.0 mph 23.0 mph N/A   Overcast
12:55 PM 62.6 °F 57.2 °F 82% 29.81 in 10.0 mi SSE 17.3 mph 25.3 mph N/A   Overcast
1:15 PM 62.6 °F 57.2 °F 82% 29.82 in 10.0 mi South 18.4 mph 27.6 mph N/A   Overcast
1:35 PM 62.6 °F 57.2 °F 82% 29.81 in 10.0 mi South 15.0 mph 21.9 mph N/A   Overcast
1:55 PM 64.4 °F 59.0 °F 83% 29.81 in 10.0 mi South 15.0 mph 21.9 mph N/A   Overcast
2:15 PM 64.4 °F 59.0 °F 83% 29.80 in 10.0 mi South 16.1 mph 26.5 mph N/A   Overcast
2:35 PM 64.4 °F 59.0 °F 83% 29.79 in 10.0 mi South 16.1 mph 21.9 mph N/A   Overcast
2:55 PM 64.4 °F 59.0 °F 83% 29.79 in 10.0 mi South 16.1 mph 21.9 mph N/A   Overcast
3:15 PM 64.4 °F 59.0 °F 83% 29.78 in 10.0 mi SSE 17.3 mph 23.0 mph N/A   Overcast
3:35 PM 62.6 °F 59.0 °F 88% 29.77 in 10.0 mi South 17.3 mph 23.0 mph N/A   Overcast
3:55 PM 64.4 °F 59.0 °F 83% 29.77 in 10.0 mi South 13.8 mph 25.3 mph N/A   Overcast
4:15 PM 64.4 °F 59.0 °F 83% 29.77 in 10.0 mi South 15.0 mph 21.9 mph N/A   Overcast
4:35 PM 64.4 °F 59.0 °F 83% 29.77 in 10.0 mi South 15.0 mph 20.7 mph N/A   Overcast
4:55 PM 62.6 °F 59.0 °F 88% 29.76 in 10.0 mi South 13.8 mph 23.0 mph N/A   Overcast
5:15 PM 64.4 °F 59.0 °F 83% 29.76 in 10.0 mi South 13.8 mph 19.6 mph N/A   Overcast
5:35 PM 64.4 °F 59.0 °F 83% 29.76 in 10.0 mi South 13.8 mph 20.7 mph N/A   Overcast
5:55 PM 64.4 °F 59.0 °F 83% 29.76 in 10.0 mi South 11.5 mph - N/A   Overcast
6:15 PM 64.4 °F 60.8 °F 88% 29.75 in 10.0 mi South 10.4 mph - N/A   Overcast
6:35 PM 64.4 °F 60.8 °F 88% 29.75 in 10.0 mi SSE 10.4 mph - N/A   Overcast
6:55 PM 64.4 °F 60.8 °F 88% 29.74 in 10.0 mi SSE 15.0 mph 18.4 mph N/A   Overcast
7:15 PM 64.4 °F 60.8 °F 88% 29.74 in 10.0 mi SSE 9.2 mph 20.7 mph N/A   Overcast
7:35 PM 64.4 °F 60.8 °F 88% 29.73 in 10.0 mi SSE 13.8 mph 17.3 mph N/A   Overcast
7:55 PM 64.4 °F 60.8 °F 88% 29.74 in 10.0 mi South 8.1 mph - N/A   Overcast
8:15 PM 64.4 °F 60.8 °F 88% 29.74 in 10.0 mi South 11.5 mph 16.1 mph N/A   Overcast
8:35 PM 62.6 °F 60.8 °F 94% 29.74 in 10.0 mi SSE 11.5 mph - N/A   Mostly Cloudy
8:55 PM 62.6 °F 62.6 °F 100% 29.75 in 10.0 mi SSE 9.2 mph - N/A   Scattered Clouds
9:15 PM 60.8 °F 60.8 °F 100% 29.75 in 10.0 mi SSE 9.2 mph - N/A   Overcast
9:35 PM 60.8 °F 60.8 °F 100% 29.75 in 10.0 mi SSE 9.2 mph - N/A   Mostly Cloudy
9:55 PM 60.8 °F 60.8 °F 100% 29.75 in 10.0 mi SSE 9.2 mph - N/A   Clear
10:15 PM 60.8 °F 60.8 °F 100% 29.75 in 10.0 mi SSE 9.2 mph - N/A   Clear
10:35 PM 59.0 °F 59.0 °F 100% 29.75 in 10.0 mi SSE 8.1 mph - N/A   Clear
10:55 PM 59.0 °F 59.0 °F 100% 29.75 in 10.0 mi SSE 8.1 mph - N/A   Clear
11:15 PM 59.0 °F 59.0 °F 100% 29.74 in 10.0 mi SSE 8.1 mph - N/A   Clear
11:35 PM 59.0 °F 59.0 °F 100% 29.73 in 10.0 mi SSE 8.1 mph - N/A   Clear
11:55 PM 59.0 °F 59.0 °F 100% 29.73 in 10.0 mi SSE 9.2 mph - N/A   Clear